Elk Horn, ID (83354)

9:34 PM MST on January 27, 2015 (GMT -0700)
RAWS COPPER BASIN ID US | Change Station
CLOSE
Current Station
Personal Weather Station
Location: Mackay, ID
Elevation: 7853 ft
Nearby Weather Stations
Active Advisory: Special Statement Active Notice: Record Report

Elev 7853 ft 43.81 °N, 113.85 °W | Updated 44 minutes ago

Rain
Rain
31 °F
Feels Like 31 °F
N
0
Wind Variable Wind from North
Gusts 0.0 mph

Today
High -- | Low -- °F
--% Chance of Precip.
Yesterday
High -- | Low -- °F
Precip. -- in
7:59 AM 5:41 PM
First Quarter, 61% visible
Pressure 30.15 in
Visibility -9999.0 miles
Clouds
Windchill 31 °F
Dew Point 29 °F
Humidity 94%
Rainfall 0.00 in
Snow Depth Not available.
UV Not available.
Pollen .30 out of 12
Air Quality Not available.
Flu Activity Not available.
METAR KSNT 280351Z AUTO 17003KT 02/00 A3012 RMK AO1 SLP209 T00170000

More Conditions Fewer Conditions

Pressure 30.15 in
Visibility -9999.0 miles
Clouds
Windchill 31 °F
Dew Point 29 °F
Humidity 94%
Rainfall 0.00 in
Snow Depth Not available.
UV Not available.
Pollen .30 out of 12
Air Quality Not available.
Flu Activity Not available.
METAR KSNT 280351Z AUTO 17003KT 02/00 A3012 RMK AO1 SLP209 T00170000

More Conditions Fewer Conditions

10-Day Weather Forecast

Almanac

Astronomy

Jan. 27, 2015 Rise Set
Actual Time
Civil Twilight
Nautical Twilight
Astronomical Twilight
Moon
Length of Visible Light
Length of Day
Tomorrow will be .
, % of the Moon is Illuminated

Today's Extremes

State Highs State Lows

Community

WunderPhotos

Upload Photos

1,791,102 photos uploaded!

WunderBlogs® & News

Nearby

Air Quality

  Air Quality AQ Index Pollutant
Not available.

Snow Depth

Station Depth Elevation

Earthquake Activity

City Distance Mag. Time & Date
Minimum magnitude displayed is 2.5.

Coastal Water Temperatures

Place Temperature

Nearby Weather Stations